Time;durP1;ratioP1;P1;durP2;ratioP2;P2;SDS_P1;SDS_P2;PMS_P1;PMS_P2;Temp;Humidity;BMP_temperature;BMP_pressure;BME280_temperature;BME280_humidity;BME280_pressure;Samples;Min_cycle;Max_cycle;Signal;HPM_P1;HPM_P2
2021/04/19 00:01:32;;;;;;;71.67;38.77;;;;;;;;;;738404;189;628214;-66
2021/04/19 00:03:58;;;;;;;85.70;40.40;;;;;;;;;;740629;189;619925;-65
2021/04/19 00:06:23;;;;;;;75.57;37.20;;;;;;;;;;746765;189;616889;-65
2021/04/19 00:08:50;;;;;;;78.07;39.00;;;;;;;;;;734817;189;920452;-71
2021/04/19 00:11:16;;;;;;;78.57;38.60;;;;;;;;;;734580;189;919868;-65
2021/04/19 00:13:43;;;;;;;78.87;36.20;;;;;;;;;;735820;189;919654;-65
2021/04/19 00:16:08;;;;;;;86.10;40.33;;;;;;;;;;740403;185;919236;-65
2021/04/19 00:18:34;;;;;;;76.67;37.27;;;;;;;;;;736432;189;919346;-65
2021/04/19 00:20:59;;;;;;;70.27;38.10;;;;;;;;;;734054;189;918847;-65
2021/04/19 00:23:25;;;;;;;68.03;35.77;;;;;;;;;;743834;189;918357;-65
2021/04/19 00:25:51;;;;;;;87.40;39.80;;;;;;;;;;738675;189;918671;-65
2021/04/19 00:28:17;;;;;;;79.17;39.30;;;;;;;;;;735501;189;923222;-65
2021/04/19 00:30:43;;;;;;;77.63;38.70;;;;;;;;;;733674;188;919218;-65
2021/04/19 00:33:09;;;;;;;79.17;40.50;;;;;;;;;;736365;189;919328;-65
2021/04/19 00:35:34;;;;;;;81.77;37.17;;;;;;;;;;731583;189;939926;-65
2021/04/19 00:38:01;;;;;;;89.15;40.33;;;;;;;;;;743048;189;919841;-64
2021/04/19 00:40:27;;;;;;;89.10;41.73;;;;;;;;;;740227;189;919252;-65
2021/04/19 00:42:53;;;;;;;96.70;43.93;;;;;;;;;;732503;189;920714;-65
2021/04/19 00:45:19;;;;;;;77.37;39.90;;;;;;;;;;733153;189;892764;-65
2021/04/19 00:47:45;;;;;;;79.70;38.67;;;;;;;;;;745094;189;919480;-65
2021/04/19 00:50:11;;;;;;;74.93;38.03;;;;;;;;;;737663;189;919364;-65
2021/04/19 00:52:37;;;;;;;79.53;39.70;;;;;;;;;;734266;189;918909;-65
2021/04/19 00:55:04;;;;;;;85.80;42.13;;;;;;;;;;734528;189;919856;-65
2021/04/19 00:57:30;;;;;;;80.07;39.83;;;;;;;;;;731871;189;939609;-65
2021/04/19 00:59:55;;;;;;;80.50;39.60;;;;;;;;;;729153;189;920735;-67
2021/04/19 01:02:21;;;;;;;89.03;39.30;;;;;;;;;;732110;189;917791;-65
2021/04/19 01:04:47;;;;;;;82.80;42.10;;;;;;;;;;735514;189;919566;-65
2021/04/19 01:07:13;;;;;;;86.70;39.37;;;;;;;;;;729805;189;919420;-65
2021/04/19 01:09:39;;;;;;;84.33;39.73;;;;;;;;;;736477;189;919694;-65
2021/04/19 01:12:05;;;;;;;79.13;37.27;;;;;;;;;;735960;189;918996;-65
2021/04/19 01:14:31;;;;;;;98.00;41.50;;;;;;;;;;736719;189;919759;-65
2021/04/19 01:16:57;;;;;;;93.80;40.70;;;;;;;;;;734395;189;919548;-66
2021/04/19 01:19:23;;;;;;;80.43;39.17;;;;;;;;;;740516;189;918679;-64
2021/04/19 01:21:49;;;;;;;80.27;39.07;;;;;;;;;;727364;189;919339;-66
2021/04/19 01:24:15;;;;;;;78.43;40.87;;;;;;;;;;737535;189;918929;-65
2021/04/19 01:26:40;;;;;;;74.80;40.67;;;;;;;;;;742561;189;919406;-65
2021/04/19 01:29:06;;;;;;;84.87;40.27;;;;;;;;;;734127;189;919299;-65
2021/04/19 01:31:32;;;;;;;94.43;42.23;;;;;;;;;;732410;189;918925;-65
2021/04/19 01:33:58;;;;;;;85.07;39.70;;;;;;;;;;728231;189;919565;-65
2021/04/19 01:36:24;;;;;;;92.90;40.73;;;;;;;;;;743978;189;919614;-65
2021/04/19 01:38:50;;;;;;;86.77;43.80;;;;;;;;;;735339;189;919253;-65
2021/04/19 01:41:15;;;;;;;100.13;43.60;;;;;;;;;;736607;188;919416;-64
2021/04/19 01:43:41;;;;;;;87.30;40.23;;;;;;;;;;740520;189;642790;-65
2021/04/19 01:46:07;;;;;;;95.67;43.40;;;;;;;;;;736265;189;919227;-66
2021/04/19 01:48:33;;;;;;;92.07;43.25;;;;;;;;;;734923;189;917529;-65
2021/04/19 01:50:59;;;;;;;95.57;43.60;;;;;;;;;;739721;189;919001;-65
2021/04/19 01:53:25;;;;;;;88.33;40.80;;;;;;;;;;732969;189;1445896;-65
2021/04/19 01:55:50;;;;;;;114.93;44.53;;;;;;;;;;734387;189;918988;-67
2021/04/19 01:58:16;;;;;;;86.13;42.70;;;;;;;;;;733697;189;920074;-65
2021/04/19 02:00:42;;;;;;;81.97;42.43;;;;;;;;;;741885;186;921044;-67
2021/04/19 02:03:12;;;;;;;92.10;42.40;;;;;;;;;;733572;189;918983;-67
2021/04/19 02:05:54;;;;;;;83.47;42.10;;;;;;;;;;730917;189;921657;-64
2021/04/19 02:08:20;;;;;;;83.07;42.27;;;;;;;;;;723881;193;920932;-65
2021/04/19 02:10:46;;;;;;;101.70;43.07;;;;;;;;;;734571;189;918782;-65
2021/04/19 02:13:12;;;;;;;81.90;40.00;;;;;;;;;;736744;189;920848;-66
2021/04/19 02:15:38;;;;;;;92.00;46.50;;;;;;;;;;731989;189;1491089;-66
2021/04/19 02:18:07;;;;;;;91.40;42.65;;;;;;;;;;741221;189;916161;-66
2021/04/19 02:20:39;;;;;;;91.03;41.90;;;;;;;;;;737726;189;919280;-65
2021/04/19 02:23:07;;;;;;;94.93;42.97;;;;;;;;;;736901;189;919535;-66
2021/04/19 02:25:33;;;;;;;92.72;44.80;;;;;;;;;;733085;189;1194032;-66
2021/04/19 02:27:58;;;;;;;95.73;43.73;;;;;;;;;;739172;189;918053;-66
2021/04/19 02:30:24;;;;;;;92.30;43.78;;;;;;;;;;732748;189;920382;-65
2021/04/19 02:32:50;;;;;;;100.13;42.97;;;;;;;;;;737249;189;918835;-66
2021/04/19 02:35:16;;;;;;;81.47;38.73;;;;;;;;;;730928;189;1373637;-65
2021/04/19 02:37:42;;;;;;;97.20;46.13;;;;;;;;;;744621;186;899925;-65
2021/04/19 02:40:08;;;;;;;91.90;41.90;;;;;;;;;;733561;189;915934;-66
2021/04/19 02:42:35;;;;;;;92.80;44.47;;;;;;;;;;731819;189;919578;-66
2021/04/19 02:45:01;;;;;;;99.23;45.57;;;;;;;;;;741377;189;626999;-67
2021/04/19 02:47:27;;;;;;;106.20;46.87;;;;;;;;;;735403;189;636091;-66
2021/04/19 02:49:52;;;;;;;82.17;41.77;;;;;;;;;;733835;189;919175;-65
2021/04/19 02:52:18;;;;;;;101.37;46.47;;;;;;;;;;737011;189;918605;-67
2021/04/19 02:54:44;;;;;;;91.47;43.93;;;;;;;;;;730555;189;919645;-66
2021/04/19 02:57:23;;;;;;;102.25;44.85;;;;;;;;;;739280;189;919551;-66
2021/04/19 02:59:49;;;;;;;94.03;44.77;;;;;;;;;;739705;189;920579;-66
2021/04/19 03:02:14;;;;;;;102.17;47.57;;;;;;;;;;738894;189;1034745;-66
2021/04/19 03:04:40;;;;;;;95.97;44.20;;;;;;;;;;729893;189;919716;-66
2021/04/19 03:07:07;;;;;;;83.10;42.17;;;;;;;;;;729985;189;919519;-66
2021/04/19 03:09:33;;;;;;;103.17;47.60;;;;;;;;;;737178;189;919356;-65
2021/04/19 03:11:59;;;;;;;101.07;45.17;;;;;;;;;;741081;189;918550;-66
2021/04/19 03:14:25;;;;;;;88.20;45.37;;;;;;;;;;738156;189;918783;-66
2021/04/19 03:16:51;;;;;;;103.73;44.90;;;;;;;;;;733131;189;919457;-65
2021/04/19 03:19:17;;;;;;;93.63;45.93;;;;;;;;;;743810;189;919030;-65
2021/04/19 03:21:43;;;;;;;88.83;47.80;;;;;;;;;;731893;189;922228;-65
2021/04/19 03:24:09;;;;;;;92.00;45.07;;;;;;;;;;736483;189;919297;-65
2021/04/19 03:26:34;;;;;;;98.40;48.27;;;;;;;;;;736125;189;919591;-65
2021/04/19 03:29:00;;;;;;;97.40;46.63;;;;;;;;;;728146;189;1021318;-65
2021/04/19 03:31:31;;;;;;;91.90;48.23;;;;;;;;;;736269;189;919094;-66
2021/04/19 03:33:57;;;;;;;101.40;48.10;;;;;;;;;;734374;189;919478;-66
2021/04/19 03:36:23;;;;;;;102.73;44.90;;;;;;;;;;738928;189;919092;-66
2021/04/19 03:38:49;;;;;;;114.60;48.60;;;;;;;;;;727494;189;919353;-65
2021/04/19 03:41:14;;;;;;;100.20;46.03;;;;;;;;;;732539;189;919548;-66
2021/04/19 03:43:40;;;;;;;93.40;46.57;;;;;;;;;;729764;189;1365803;-66
2021/04/19 03:46:06;;;;;;;102.30;45.20;;;;;;;;;;731068;189;947839;-66
2021/04/19 03:48:32;;;;;;;102.53;49.17;;;;;;;;;;735202;189;919113;-66
2021/04/19 03:50:58;;;;;;;92.23;47.40;;;;;;;;;;738914;189;918238;-66
2021/04/19 03:53:24;;;;;;;104.97;51.37;;;;;;;;;;735759;189;918419;-66
2021/04/19 03:55:49;;;;;;;102.83;47.90;;;;;;;;;;737478;189;634544;-66
2021/04/19 03:58:15;;;;;;;92.60;49.27;;;;;;;;;;733570;189;623287;-68
2021/04/19 04:00:41;;;;;;;107.55;52.20;;;;;;;;;;734519;189;919230;-66
2021/04/19 04:03:07;;;;;;;108.37;51.30;;;;;;;;;;733248;189;919013;-66
2021/04/19 04:05:33;;;;;;;104.57;48.33;;;;;;;;;;737579;187;919394;-66
2021/04/19 04:07:59;;;;;;;107.57;49.67;;;;;;;;;;738527;189;917301;-67
2021/04/19 04:10:25;;;;;;;104.00;51.53;;;;;;;;;;733427;189;1821606;-67
2021/04/19 04:12:51;;;;;;;95.73;49.07;;;;;;;;;;736976;189;920028;-66
2021/04/19 04:15:18;;;;;;;109.27;52.53;;;;;;;;;;739056;189;917312;-66
2021/04/19 04:17:43;;;;;;;100.63;48.87;;;;;;;;;;737042;189;919465;-66
2021/04/19 04:20:09;;;;;;;107.43;49.27;;;;;;;;;;730612;189;911575;-67
2021/04/19 04:22:35;;;;;;;97.23;48.30;;;;;;;;;;734253;189;920990;-65
2021/04/19 04:25:01;;;;;;;105.70;48.50;;;;;;;;;;737682;189;923118;-65
2021/04/19 04:27:27;;;;;;;106.83;47.57;;;;;;;;;;737023;189;918292;-66
2021/04/19 04:29:53;;;;;;;98.40;43.10;;;;;;;;;;736634;189;918520;-65
2021/04/19 04:32:18;;;;;;;95.87;47.30;;;;;;;;;;743652;189;918879;-65
2021/04/19 04:34:44;;;;;;;86.15;47.05;;;;;;;;;;737577;189;919610;-65
2021/04/19 04:37:10;;;;;;;97.43;45.10;;;;;;;;;;734352;189;921443;-65
2021/04/19 04:39:36;;;;;;;90.40;44.03;;;;;;;;;;741408;189;919367;-65
2021/04/19 04:42:02;;;;;;;89.73;45.33;;;;;;;;;;731232;189;919471;-65
2021/04/19 04:44:29;;;;;;;92.40;44.25;;;;;;;;;;732563;189;942321;-69
2021/04/19 04:46:55;;;;;;;88.83;47.07;;;;;;;;;;730684;189;920931;-68
2021/04/19 04:49:23;;;;;;;84.32;45.10;;;;;;;;;;741788;186;919073;-65
2021/04/19 04:51:49;;;;;;;106.37;47.37;;;;;;;;;;729148;189;1267653;-67
2021/04/19 04:54:15;;;;;;;92.45;44.53;;;;;;;;;;737421;189;918702;-65
2021/04/19 04:56:41;;;;;;;97.60;46.23;;;;;;;;;;740178;189;919023;-65
2021/04/19 04:59:07;;;;;;;92.03;45.37;;;;;;;;;;737500;189;918413;-66
2021/04/19 05:01:33;;;;;;;89.63;44.07;;;;;;;;;;732835;189;1021107;-65
2021/04/19 05:03:59;;;;;;;92.35;46.13;;;;;;;;;;740061;189;919935;-66
2021/04/19 05:06:25;;;;;;;84.83;45.20;;;;;;;;;;733830;189;918895;-65
2021/04/19 05:08:50;;;;;;;110.60;50.80;;;;;;;;;;734113;189;941248;-66
2021/04/19 05:11:16;;;;;;;104.03;46.30;;;;;;;;;;733260;189;919407;-65
2021/04/19 05:13:42;;;;;;;114.50;65.17;;;;;;;;;;740954;189;936885;-66
2021/04/19 05:16:08;;;;;;;95.77;48.87;;;;;;;;;;726822;187;1845233;-65
2021/04/19 05:18:34;;;;;;;92.93;47.33;;;;;;;;;;737443;189;918892;-65
2021/04/19 05:21:00;;;;;;;85.87;40.83;;;;;;;;;;743482;189;918866;-65
2021/04/19 05:23:27;;;;;;;93.13;43.90;;;;;;;;;;736815;189;920081;-66
2021/04/19 05:25:51;;;;;;;92.70;45.00;;;;;;;;;;734795;189;918905;-65
2021/04/19 05:28:19;;;;;;;98.63;46.40;;;;;;;;;;740113;189;919225;-65
2021/04/19 05:30:44;;;;;;;88.47;45.10;;;;;;;;;;737739;189;918792;-65
2021/04/19 05:33:10;;;;;;;96.57;47.60;;;;;;;;;;730926;189;919310;-65
2021/04/19 05:35:36;;;;;;;72.93;42.40;;;;;;;;;;736678;189;919787;-64
2021/04/19 05:38:01;;;;;;;87.03;42.50;;;;;;;;;;740740;185;1153971;-65
2021/04/19 05:40:27;;;;;;;91.97;45.07;;;;;;;;;;733145;189;919478;-65
2021/04/19 05:42:53;;;;;;;85.93;42.85;;;;;;;;;;732860;189;919816;-65
2021/04/19 05:45:19;;;;;;;92.40;46.00;;;;;;;;;;741857;189;918972;-65
2021/04/19 05:47:45;;;;;;;94.00;45.47;;;;;;;;;;733959;189;918193;-65
2021/04/19 05:50:11;;;;;;;96.22;46.70;;;;;;;;;;740120;189;628503;-66
2021/04/19 05:52:37;;;;;;;90.73;45.77;;;;;;;;;;738564;189;625905;-67
2021/04/19 05:55:03;;;;;;;80.27;40.07;;;;;;;;;;736580;189;622992;-66
2021/04/19 05:57:29;;;;;;;90.23;42.50;;;;;;;;;;733110;189;771029;-65
2021/04/19 05:59:55;;;;;;;79.90;39.77;;;;;;;;;;741878;189;844485;-67
2021/04/19 06:02:36;;;;;;;90.70;44.03;;;;;;;;;;735513;189;706447;-65
2021/04/19 06:05:01;;;;;;;75.97;39.30;;;;;;;;;;736615;189;632061;-65
2021/04/19 06:07:27;;;;;;;89.40;44.40;;;;;;;;;;738196;189;638099;-66
2021/04/19 06:09:58;;;;;;;80.57;43.40;;;;;;;;;;737556;189;619457;-65
2021/04/19 06:12:23;;;;;;;78.80;40.63;;;;;;;;;;743534;189;622746;-65
2021/04/19 06:14:49;;;;;;;77.70;41.03;;;;;;;;;;735648;189;634642;-65
2021/04/19 06:17:14;;;;;;;83.13;41.30;;;;;;;;;;737305;189;919648;-65
2021/04/19 06:19:40;;;;;;;79.33;39.70;;;;;;;;;;736851;189;917124;-65
2021/04/19 06:22:06;;;;;;;82.93;41.63;;;;;;;;;;735108;189;919021;-65
2021/04/19 06:24:32;;;;;;;77.67;40.87;;;;;;;;;;733386;189;916881;-65
2021/04/19 06:26:58;;;;;;;83.12;40.55;;;;;;;;;;739090;189;921215;-65
2021/04/19 06:29:26;;;;;;;83.30;41.67;;;;;;;;;;739486;187;621580;-66
2021/04/19 06:31:52;;;;;;;76.70;40.63;;;;;;;;;;739712;189;633323;-65
2021/04/19 06:34:18;;;;;;;77.90;39.97;;;;;;;;;;737687;189;785500;-64
2021/04/19 06:36:44;;;;;;;82.70;40.10;;;;;;;;;;742232;189;735390;-65
2021/04/19 06:39:10;;;;;;;66.57;34.47;;;;;;;;;;738741;189;626033;-65
2021/04/19 06:41:36;;;;;;;81.87;39.90;;;;;;;;;;739728;189;625932;-64
2021/04/19 06:44:01;;;;;;;82.70;39.37;;;;;;;;;;742420;189;638379;-66
2021/04/19 06:46:27;;;;;;;75.25;36.45;;;;;;;;;;732006;189;1300248;-65
2021/04/19 06:48:54;;;;;;;71.10;36.67;;;;;;;;;;737228;189;621910;-65
2021/04/19 06:51:19;;;;;;;77.77;37.93;;;;;;;;;;740373;189;616628;-65
2021/04/19 06:53:45;;;;;;;68.93;35.00;;;;;;;;;;741738;189;624300;-64
2021/04/19 06:56:11;;;;;;;75.63;38.07;;;;;;;;;;735959;189;684246;-65
2021/04/19 06:58:36;;;;;;;49.93;23.00;;;;;;;;;;739246;189;660089;-65
2021/04/19 07:01:02;;;;;;;70.30;35.97;;;;;;;;;;738998;189;619876;-65
2021/04/19 07:03:28;;;;;;;64.53;34.95;;;;;;;;;;737111;189;626919;-65
2021/04/19 07:05:54;;;;;;;64.97;32.77;;;;;;;;;;736605;189;640466;-65
2021/04/19 07:08:30;;;;;;;56.70;30.67;;;;;;;;;;744079;189;619963;-65
2021/04/19 07:10:59;;;;;;;57.53;34.80;;;;;;;;;;735647;189;1540319;-67
2021/04/19 07:13:24;;;;;;;59.30;33.40;;;;;;;;;;738375;189;869036;-67
2021/04/19 07:15:50;;;;;;;63.73;33.83;;;;;;;;;;736782;189;629825;-67
2021/04/19 07:18:16;;;;;;;57.63;35.17;;;;;;;;;;741847;189;619345;-67
2021/04/19 07:20:42;;;;;;;64.23;30.80;;;;;;;;;;732097;189;644416;-67
2021/04/19 07:23:08;;;;;;;58.20;31.80;;;;;;;;;;741737;189;740146;-67
2021/04/19 07:25:34;;;;;;;57.17;31.77;;;;;;;;;;743954;189;619644;-67
2021/04/19 07:28:00;;;;;;;68.27;33.60;;;;;;;;;;734286;189;1587949;-69
2021/04/19 07:30:26;;;;;;;67.60;35.83;;;;;;;;;;738439;189;623383;-68
2021/04/19 07:32:52;;;;;;;63.60;33.80;;;;;;;;;;735334;189;919331;-65
2021/04/19 07:35:18;;;;;;;65.37;34.03;;;;;;;;;;742169;189;621366;-65
2021/04/19 07:37:58;;;;;;;63.83;34.13;;;;;;;;;;736068;189;622083;-65
2021/04/19 07:40:28;;;;;;;63.17;36.40;;;;;;;;;;735331;188;629009;-65
2021/04/19 07:43:00;;;;;;;67.37;33.40;;;;;;;;;;738227;189;630789;-65
2021/04/19 07:45:26;;;;;;;63.20;35.23;;;;;;;;;;744491;189;637427;-65
2021/04/19 07:47:51;;;;;;;69.23;37.03;;;;;;;;;;736580;189;639344;-66
2021/04/19 07:50:18;;;;;;;58.50;32.10;;;;;;;;;;739601;189;634310;-66
2021/04/19 07:52:50;;;;;;;64.53;35.13;;;;;;;;;;738155;189;640725;-66
2021/04/19 07:55:16;;;;;;;61.67;33.03;;;;;;;;;;744808;189;625086;-65
2021/04/19 07:57:42;;;;;;;65.33;35.30;;;;;;;;;;738939;189;628927;-65
2021/04/19 08:00:08;;;;;;;74.60;39.40;;;;;;;;;;738861;189;624345;-66
2021/04/19 08:02:34;;;;;;;66.60;34.30;;;;;;;;;;738800;189;617654;-66
2021/04/19 08:05:04;;;;;;;65.87;34.73;;;;;;;;;;739478;189;624663;-66
2021/04/19 08:07:26;;;;;;;60.30;34.80;;;;;;;;;;735510;189;628754;-66
2021/04/19 08:09:54;;;;;;;67.63;35.63;;;;;;;;;;739552;189;626007;-65
2021/04/19 08:12:20;;;;;;;62.60;32.57;;;;;;;;;;741247;189;629238;-65
2021/04/19 08:14:51;;;;;;;58.27;35.20;;;;;;;;;;737182;189;652749;-66
2021/04/19 08:17:17;;;;;;;64.03;33.90;;;;;;;;;;741860;189;635761;-67
2021/04/19 08:19:44;;;;;;;60.00;31.20;;;;;;;;;;735823;189;627126;-64
2021/04/19 08:22:12;;;;;;;63.57;32.90;;;;;;;;;;738572;189;627883;-66
2021/04/19 08:24:37;;;;;;;64.53;38.77;;;;;;;;;;736456;189;624937;-65
2021/04/19 08:27:03;;;;;;;70.17;37.50;;;;;;;;;;738586;189;625237;-66
2021/04/19 08:29:34;;;;;;;45.47;24.60;;;;;;;;;;741106;189;614744;-65
2021/04/19 08:32:00;;;;;;;63.13;36.03;;;;;;;;;;736218;189;919505;-66
2021/04/19 08:34:26;;;;;;;70.30;37.30;;;;;;;;;;734246;189;637511;-67
2021/04/19 08:36:52;;;;;;;73.60;36.50;;;;;;;;;;739030;189;628731;-66
2021/04/19 08:39:17;;;;;;;63.80;36.37;;;;;;;;;;738770;189;621747;-67
2021/04/19 08:41:43;;;;;;;77.53;39.93;;;;;;;;;;733570;189;629168;-67
2021/04/19 08:44:09;;;;;;;81.00;40.40;;;;;;;;;;737674;189;626939;-66
2021/04/19 08:46:35;;;;;;;65.17;34.13;;;;;;;;;;743768;189;618270;-67
2021/04/19 08:49:01;;;;;;;69.87;35.73;;;;;;;;;;737025;189;644644;-67
2021/04/19 08:51:27;;;;;;;71.90;45.13;;;;;;;;;;737664;187;625529;-66
2021/04/19 08:53:52;;;;;;;73.33;43.50;;;;;;;;;;743945;189;616584;-67
2021/04/19 08:56:18;;;;;;;77.73;41.30;;;;;;;;;;739080;189;793413;-68
2021/04/19 08:58:44;;;;;;;78.37;39.40;;;;;;;;;;739395;189;617084;-66
2021/04/19 09:01:10;;;;;;;70.20;38.77;;;;;;;;;;741608;189;651127;-66
2021/04/19 09:03:36;;;;;;;75.20;42.90;;;;;;;;;;736179;189;636019;-66
2021/04/19 09:06:02;;;;;;;77.57;46.03;;;;;;;;;;737557;189;628230;-66
2021/04/19 09:08:28;;;;;;;50.43;25.53;;;;;;;;;;735015;189;628954;-68
2021/04/19 09:10:56;;;;;;;65.87;36.57;;;;;;;;;;739636;189;612780;-66
2021/04/19 09:13:24;;;;;;;60.27;38.10;;;;;;;;;;741749;188;637750;-67
2021/04/19 09:15:52;;;;;;;73.47;38.40;;;;;;;;;;737994;189;628542;-67
2021/04/19 09:18:16;;;;;;;79.23;42.30;;;;;;;;;;741504;189;627208;-68
2021/04/19 09:20:44;;;;;;;64.77;37.90;;;;;;;;;;739261;189;659339;-66
2021/04/19 09:23:13;;;;;;;67.80;38.93;;;;;;;;;;739461;189;629799;-66
2021/04/19 09:25:41;;;;;;;63.50;38.13;;;;;;;;;;736685;189;632623;-67
2021/04/19 09:28:07;;;;;;;69.33;38.00;;;;;;;;;;740421;189;636468;-66
2021/04/19 09:30:36;;;;;;;65.63;39.00;;;;;;;;;;737535;189;628927;-66
2021/04/19 09:33:19;;;;;;;63.80;37.53;;;;;;;;;;739359;189;635816;-65
2021/04/19 09:35:44;;;;;;;55.67;32.77;;;;;;;;;;738202;189;643869;-67
2021/04/19 09:38:10;;;;;;;40.15;22.37;;;;;;;;;;740238;189;661495;-66
2021/04/19 09:40:41;;;;;;;43.73;23.80;;;;;;;;;;744923;185;729042;-66
2021/04/19 09:43:07;;;;;;;57.57;30.70;;;;;;;;;;739531;189;651939;-66
2021/04/19 09:45:39;;;;;;;36.83;24.07;;;;;;;;;;741144;189;628875;-68
2021/04/19 09:48:05;;;;;;;33.63;17.80;;;;;;;;;;737389;189;629984;-64
2021/04/19 09:50:30;;;;;;;42.23;26.50;;;;;;;;;;745435;186;624018;-66
2021/04/19 09:52:56;;;;;;;39.73;24.37;;;;;;;;;;737502;189;618852;-67
2021/04/19 09:55:22;;;;;;;34.40;22.53;;;;;;;;;;736680;189;628825;-65
2021/04/19 09:57:48;;;;;;;45.33;25.50;;;;;;;;;;736794;189;615345;-66
2021/04/19 10:00:14;;;;;;;38.33;24.77;;;;;;;;;;739082;189;617425;-66
2021/04/19 10:02:40;;;;;;;47.30;29.43;;;;;;;;;;737973;188;631993;-66
2021/04/19 10:05:06;;;;;;;50.20;26.37;;;;;;;;;;744335;188;623064;-65
2021/04/19 10:07:32;;;;;;;42.80;27.97;;;;;;;;;;739541;189;629204;-65
2021/04/19 10:09:58;;;;;;;54.47;30.83;;;;;;;;;;740849;189;692248;-67
2021/04/19 10:12:24;;;;;;;49.57;28.30;;;;;;;;;;741885;189;629368;-67
2021/04/19 10:14:50;;;;;;;47.77;27.83;;;;;;;;;;738516;189;621317;-65
2021/04/19 10:17:16;;;;;;;42.43;25.70;;;;;;;;;;740401;189;619061;-66
2021/04/19 10:19:41;;;;;;;43.40;24.70;;;;;;;;;;739580;189;628816;-65
2021/04/19 10:22:07;;;;;;;50.83;30.40;;;;;;;;;;741495;189;634432;-66
2021/04/19 10:24:33;;;;;;;34.17;21.00;;;;;;;;;;735098;189;619957;-67
2021/04/19 10:26:59;;;;;;;38.50;23.70;;;;;;;;;;738503;189;621928;-64
2021/04/19 10:29:27;;;;;;;42.63;22.60;;;;;;;;;;741132;189;669843;-65
2021/04/19 10:31:53;;;;;;;36.90;18.93;;;;;;;;;;740241;189;645285;-65
2021/04/19 10:34:19;;;;;;;31.10;18.33;;;;;;;;;;737641;189;626443;-67
2021/04/19 10:36:45;;;;;;;28.17;19.40;;;;;;;;;;744246;189;628068;-64
2021/04/19 10:39:12;;;;;;;35.87;23.27;;;;;;;;;;735732;189;624449;-65
2021/04/19 10:41:38;;;;;;;35.77;21.43;;;;;;;;;;737407;189;644450;-65
2021/04/19 10:44:03;;;;;;;32.87;21.40;;;;;;;;;;737452;189;623957;-65
2021/04/19 10:46:30;;;;;;;32.17;20.73;;;;;;;;;;742698;189;630352;-65
2021/04/19 10:48:57;;;;;;;31.17;20.23;;;;;;;;;;735902;189;634986;-65
2021/04/19 10:51:22;;;;;;;28.70;19.02;;;;;;;;;;739840;189;625644;-65
2021/04/19 10:53:48;;;;;;;27.87;16.50;;;;;;;;;;741556;189;614216;-65
2021/04/19 10:56:20;;;;;;;25.07;16.30;;;;;;;;;;739563;189;624058;-64
2021/04/19 10:58:39;;;;;;;36.27;22.30;;;;;;;;;;741459;189;620793;-63
2021/04/19 11:01:05;;;;;;;36.47;21.90;;;;;;;;;;739100;189;627099;-64
2021/04/19 11:03:36;;;;;;;36.07;22.47;;;;;;;;;;737748;189;627020;-67
2021/04/19 11:06:01;;;;;;;32.47;20.30;;;;;;;;;;733731;189;624203;-64
2021/04/19 11:08:33;;;;;;;31.57;18.00;;;;;;;;;;736609;189;618251;-65
2021/04/19 11:10:59;;;;;;;40.20;26.00;;;;;;;;;;740418;189;644148;-65
2021/04/19 11:13:25;;;;;;;38.30;24.27;;;;;;;;;;735442;189;818918;-64
2021/04/19 11:15:51;;;;;;;34.80;17.47;;;;;;;;;;739403;187;626808;-66
2021/04/19 11:18:23;;;;;;;36.60;22.00;;;;;;;;;;738042;189;631917;-64
2021/04/19 11:20:48;;;;;;;32.90;21.90;;;;;;;;;;741580;189;634896;-66
2021/04/19 11:23:19;;;;;;;30.60;19.97;;;;;;;;;;735754;189;632992;-65
2021/04/19 11:25:48;;;;;;;30.70;18.20;;;;;;;;;;738860;189;687371;-66
2021/04/19 11:28:19;;;;;;;32.63;20.10;;;;;;;;;;738114;189;639253;-64
2021/04/19 11:30:45;;;;;;;43.90;26.97;;;;;;;;;;742521;189;626128;-66
2021/04/19 11:33:10;;;;;;;50.97;31.20;;;;;;;;;;736723;189;631188;-65
2021/04/19 11:35:37;;;;;;;26.60;19.50;;;;;;;;;;738114;189;642111;-64
2021/04/19 11:38:03;;;;;;;42.40;27.83;;;;;;;;;;740901;189;614450;-65
2021/04/19 11:40:29;;;;;;;36.93;26.57;;;;;;;;;;740039;189;639701;-67
2021/04/19 11:42:55;;;;;;;43.07;24.70;;;;;;;;;;738327;189;652034;-65
2021/04/19 11:45:21;;;;;;;30.03;20.40;;;;;;;;;;737814;189;622626;-66
2021/04/19 11:47:46;;;;;;;25.30;16.87;;;;;;;;;;728002;190;630585;-66
2021/04/19 11:50:12;;;;;;;21.73;14.80;;;;;;;;;;736797;189;686846;-65
2021/04/19 11:52:45;;;;;;;47.93;27.40;;;;;;;;;;736709;189;631672;-65
2021/04/19 11:55:11;;;;;;;54.00;33.00;;;;;;;;;;740301;189;627336;-65
2021/04/19 11:57:37;;;;;;;32.10;15.73;;;;;;;;;;738754;189;633125;-65
2021/04/19 12:00:03;;;;;;;30.67;19.23;;;;;;;;;;740698;189;618458;-65
2021/04/19 12:02:29;;;;;;;41.00;23.93;;;;;;;;;;735815;189;623653;-65
2021/04/19 12:04:55;;;;;;;75.87;42.70;;;;;;;;;;740956;189;632489;-65
2021/04/19 12:07:21;;;;;;;31.07;21.03;;;;;;;;;;736244;189;629843;-65
2021/04/19 12:09:47;;;;;;;23.20;15.40;;;;;;;;;;739025;189;625889;-65
2021/04/19 12:12:13;;;;;;;21.80;13.87;;;;;;;;;;739751;189;636168;-65
2021/04/19 12:14:38;;;;;;;22.80;15.87;;;;;;;;;;738088;189;683706;-67
2021/04/19 12:17:04;;;;;;;20.90;13.50;;;;;;;;;;737373;189;630344;-65
2021/04/19 12:19:30;;;;;;;22.30;14.67;;;;;;;;;;742281;189;625391;-65
2021/04/19 12:21:56;;;;;;;18.27;12.60;;;;;;;;;;738852;189;643419;-67
2021/04/19 12:24:22;;;;;;;23.83;8.70;;;;;;;;;;737046;189;633364;-67
2021/04/19 12:26:48;;;;;;;17.77;13.97;;;;;;;;;;740806;188;625931;-64
2021/04/19 12:29:14;;;;;;;20.83;13.17;;;;;;;;;;746112;185;622936;-65
2021/04/19 12:31:39;;;;;;;27.03;14.10;;;;;;;;;;740217;189;660884;-69
2021/04/19 12:34:05;;;;;;;22.90;15.17;;;;;;;;;;738950;189;643121;-66
2021/04/19 12:36:33;;;;;;;16.97;10.77;;;;;;;;;;741572;189;641135;-66
2021/04/19 12:38:57;;;;;;;17.00;9.90;;;;;;;;;;737136;189;634271;-65
2021/04/19 12:41:23;;;;;;;19.63;13.00;;;;;;;;;;736112;189;647221;-65
2021/04/19 12:43:49;;;;;;;18.63;12.30;;;;;;;;;;742719;189;649992;-67
2021/04/19 12:46:14;;;;;;;16.53;10.10;;;;;;;;;;736666;189;629513;-67
2021/04/19 12:48:40;;;;;;;16.97;9.80;;;;;;;;;;735971;189;643886;-66
2021/04/19 12:51:06;;;;;;;15.23;9.82;;;;;;;;;;741931;189;614146;-66
2021/04/19 12:53:32;;;;;;;13.67;8.97;;;;;;;;;;738623;189;622572;-67
2021/04/19 12:55:58;;;;;;;13.83;8.03;;;;;;;;;;739969;189;622062;-65
2021/04/19 12:58:24;;;;;;;15.37;9.83;;;;;;;;;;738266;189;640461;-64
2021/04/19 13:00:50;;;;;;;14.87;9.33;;;;;;;;;;742556;189;624089;-66
2021/04/19 13:03:15;;;;;;;14.87;8.50;;;;;;;;;;736346;189;643535;-65
2021/04/19 13:05:41;;;;;;;17.30;9.67;;;;;;;;;;739282;189;615833;-65
2021/04/19 13:08:07;;;;;;;17.70;9.90;;;;;;;;;;742034;189;631326;-65
2021/04/19 13:10:33;;;;;;;12.70;8.53;;;;;;;;;;741833;189;630393;-65
2021/04/19 13:12:59;;;;;;;18.80;11.93;;;;;;;;;;734610;189;618298;-65
2021/04/19 13:15:25;;;;;;;15.90;10.67;;;;;;;;;;742439;189;618452;-66
2021/04/19 13:17:51;;;;;;;17.03;10.57;;;;;;;;;;737293;189;620596;-66
2021/04/19 13:20:16;;;;;;;21.50;11.77;;;;;;;;;;735337;189;632699;-65
2021/04/19 13:22:44;;;;;;;18.47;12.13;;;;;;;;;;738731;189;669164;-67
2021/04/19 13:25:10;;;;;;;20.73;13.80;;;;;;;;;;745109;185;629318;-65
2021/04/19 13:27:35;;;;;;;21.73;14.30;;;;;;;;;;740304;189;622339;-65
2021/04/19 13:30:01;;;;;;;27.43;15.60;;;;;;;;;;738877;189;618831;-66
2021/04/19 13:32:27;;;;;;;28.80;17.47;;;;;;;;;;741773;189;619953;-65
2021/04/19 13:34:53;;;;;;;32.80;17.30;;;;;;;;;;738539;189;623973;-64
2021/04/19 13:37:19;;;;;;;24.50;14.80;;;;;;;;;;742465;187;622642;-65
2021/04/19 13:39:45;;;;;;;23.43;15.43;;;;;;;;;;742137;189;639209;-65
2021/04/19 13:42:10;;;;;;;25.20;17.12;;;;;;;;;;740674;189;626469;-65
2021/04/19 13:44:37;;;;;;;23.73;14.77;;;;;;;;;;737169;189;807653;-65
2021/04/19 13:47:02;;;;;;;25.63;16.33;;;;;;;;;;736818;189;629517;-64
2021/04/19 13:49:28;;;;;;;26.67;15.10;;;;;;;;;;731461;191;686975;-65
2021/04/19 13:51:54;;;;;;;37.27;23.67;;;;;;;;;;739578;189;719702;-66
2021/04/19 13:54:20;;;;;;;27.37;19.77;;;;;;;;;;737799;189;636222;-64
2021/04/19 13:56:46;;;;;;;28.77;18.60;;;;;;;;;;744885;189;625458;-64
2021/04/19 13:59:12;;;;;;;28.80;17.80;;;;;;;;;;737018;189;795472;-65